Time;durP1;ratioP1;P1;durP2;ratioP2;P2;SDS_P1;SDS_P2;PMS_P1;PMS_P2;Temp;Humidity;BMP_temperature;BMP_pressure;BME280_temperature;BME280_humidity;BME280_pressure;Samples;Min_cycle;Max_cycle;Signal;HPM_P1;HPM_P2
2021/06/06 00:02:06;;;;;;;7.30;3.62;;;;;;;22.61;47.72;101477.03;1774849;80;21502;-49
2021/06/06 00:04:33;;;;;;;7.90;3.77;;;;;;;22.61;47.71;101477.03;1774139;80;21470;-50
2021/06/06 00:07:00;;;;;;;3.50;2.85;;;;;;;22.60;47.69;101475.34;1772731;80;21061;-49
2021/06/06 00:09:26;;;;;;;10.08;3.55;;;;;;;22.60;47.79;101472.69;1771455;80;21019;-48
2021/06/06 00:11:55;;;;;;;4.37;3.20;;;;;;;22.60;47.86;101474.02;1772336;80;21022;-49
2021/06/06 00:14:31;;;;;;;5.47;3.62;;;;;;;22.59;47.73;101470.97;1760556;80;21094;-48
2021/06/06 00:17:02;;;;;;;8.53;3.25;;;;;;;22.56;47.90;101468.48;1782457;80;21041;-50
2021/06/06 00:19:29;;;;;;;3.85;2.87;;;;;;;22.53;48.00;101469.12;1787935;80;21053;-50
2021/06/06 00:21:59;;;;;;;5.90;3.22;;;;;;;22.50;48.03;101471.47;1782144;80;21557;-49
2021/06/06 00:24:29;;;;;;;3.85;2.95;;;;;;;22.49;48.15;101474.23;1775355;81;21605;-49
2021/06/06 00:26:56;;;;;;;6.10;3.67;;;;;;;22.47;48.29;101471.67;1761116;81;20991;-49
2021/06/06 00:29:23;;;;;;;7.92;3.50;;;;;;;22.45;48.29;101473.56;1762496;81;20987;-50
2021/06/06 00:31:50;;;;;;;5.15;3.55;;;;;;;22.43;48.35;101470.61;1764412;81;21015;-50
2021/06/06 00:34:16;;;;;;;5.95;3.95;;;;;;;22.41;48.54;101465.88;1765458;81;21510;-49
2021/06/06 00:36:43;;;;;;;6.53;3.72;;;;;;;22.45;48.61;101467.40;1764029;81;21522;-49
2021/06/06 00:39:11;;;;;;;5.08;3.05;;;;;;;22.46;48.79;101467.30;1770631;81;21034;-49
2021/06/06 00:41:40;;;;;;;3.87;3.33;;;;;;;22.46;48.94;101463.32;1764824;81;20975;-49
2021/06/06 00:44:07;;;;;;;4.53;3.33;;;;;;;22.45;49.27;101462.95;1753039;81;21564;-50
2021/06/06 00:46:34;;;;;;;5.42;3.10;;;;;;;22.43;49.58;101463.52;1770891;80;21074;-49
2021/06/06 00:49:01;;;;;;;4.80;3.00;;;;;;;22.39;50.09;101464.65;1755846;81;21519;-49
2021/06/06 00:51:35;;;;;;;4.25;3.40;;;;;;;22.37;50.41;101498.82;1733833;81;21047;-50
2021/06/06 00:54:10;;;;;;;5.65;3.33;;;;;;;22.37;50.46;101506.31;1676076;84;21121;-49
2021/06/06 00:56:37;;;;;;;3.45;2.92;;;;;;;22.40;49.59;101491.53;1570618;90;21104;-48
2021/06/06 00:59:06;;;;;;;4.72;2.90;;;;;;;22.40;48.87;101471.64;1572371;90;21060;-49
2021/06/06 01:01:33;;;;;;;5.62;3.02;;;;;;;22.37;48.85;101507.64;1570949;90;20993;-49
2021/06/06 01:04:00;;;;;;;3.55;2.98;;;;;;;22.35;48.76;101509.99;1594900;89;21116;-48
2021/06/06 01:06:32;;;;;;;5.87;3.40;;;;;;;22.29;48.63;101491.33;1568661;90;21068;-48
2021/06/06 01:09:00;;;;;;;;;;;;;;;22.24;48.30;101477.47;1546400;91;21092;-48
2021/06/06 01:11:39;;;;;;;4.83;3.10;;;;;;;22.20;48.40;101483.04;1534425;92;20182;-49
2021/06/06 01:14:24;;;;;;;4.53;2.92;;;;;;;22.13;48.68;101506.42;1541952;92;21135;-49
2021/06/06 01:17:12;;;;;;;4.55;3.02;;;;;;;22.12;48.86;101517.09;1538654;92;21067;-49
2021/06/06 01:19:53;;;;;;;10.15;3.02;;;;;;;22.08;48.83;101505.82;1510120;92;21165;-48
2021/06/06 01:23:06;;;;;;;7.47;2.92;;;;;;;22.07;48.81;101501.45;1532494;92;21171;-49
2021/06/06 01:25:44;;;;;;;6.53;3.08;;;;;;;22.08;48.58;101491.24;1520037;93;21654;-49
2021/06/06 01:28:26;;;;;;;8.88;3.85;;;;;;;22.08;48.39;101488.59;1529797;93;21069;-49
2021/06/06 01:30:57;;;;;;;5.03;3.45;;;;;;;22.09;48.36;101494.26;1520149;93;21583;-49
2021/06/06 01:33:28;;;;;;;4.50;2.87;;;;;;;22.07;48.54;101500.12;1537868;93;21069;-50
2021/06/06 01:36:12;;;;;;;3.50;2.90;;;;;;;22.09;48.50;101496.91;1552970;92;21174;-48
2021/06/06 01:38:44;;;;;;;3.92;2.90;;;;;;;22.10;48.19;101495.98;1552821;92;21070;-49
2021/06/06 01:41:17;;;;;;;6.58;3.05;;;;;;;22.08;48.08;101496.55;1538183;92;21099;-49
2021/06/06 01:43:48;;;;;;;5.75;2.83;;;;;;;22.12;47.99;101500.72;1550160;91;21109;-49
2021/06/06 01:46:45;;;;;;;7.45;3.00;;;;;;;22.19;48.01;101501.23;1544953;91;21612;-49
2021/06/06 01:49:13;;;;;;;4.85;3.80;;;;;;;22.18;47.94;101500.37;1550059;91;21202;-50
2021/06/06 01:51:50;;;;;;;4.85;3.02;;;;;;;22.17;48.12;101492.52;1589144;88;21087;-48
2021/06/06 01:54:19;;;;;;;3.77;3.15;;;;;;;22.13;48.61;101497.15;1596777;88;21106;-49
2021/06/06 01:56:50;;;;;;;3.47;2.98;;;;;;;22.10;49.41;101489.82;1596879;88;21508;-49
2021/06/06 01:59:33;;;;;;;4.70;3.62;;;;;;;22.06;50.17;101490.94;1590215;89;21042;-48
2021/06/06 02:02:03;;;;;;;3.83;2.83;;;;;;;22.01;50.91;101489.88;1611331;87;21627;-50
2021/06/06 02:04:30;;;;;;;7.35;3.45;;;;;;;21.98;51.71;101480.80;1613458;89;21134;-49
2021/06/06 02:07:16;;;;;;;4.55;3.30;;;;;;;21.96;52.10;101480.03;1638979;86;21061;-48
2021/06/06 02:09:58;;;;;;;3.80;3.10;;;;;;;21.92;52.52;101482.94;1618475;87;21049;-48
2021/06/06 02:12:33;;;;;;;5.22;3.27;;;;;;;21.86;52.84;101481.50;1554356;92;21060;-49
2021/06/06 02:15:13;;;;;;;;;;;;;;;21.79;53.00;101492.02;1556492;92;21078;-48
2021/06/06 02:17:42;;;;;;;5.20;3.30;;;;;;;21.75;53.37;101499.75;1520032;94;20122;-49
2021/06/06 02:20:20;;;;;;;8.33;3.60;;;;;;;21.73;53.60;101509.58;1501297;95;21071;-48
2021/06/06 02:22:49;;;;;;;7.62;3.65;;;;;;;21.72;53.72;101517.16;1502402;95;21096;-48
2021/06/06 02:25:18;;;;;;;8.88;3.92;;;;;;;21.71;53.92;101519.41;1500522;96;21187;-49
2021/06/06 02:28:06;;;;;;;4.55;3.12;;;;;;;21.70;54.07;101523.84;1497885;96;21156;-48
2021/06/06 02:30:44;;;;;;;4.97;3.02;;;;;;;21.69;54.11;101516.85;1495616;96;21100;-48
2021/06/06 02:33:40;;;;;;;5.40;3.12;;;;;;;21.63;54.26;101515.01;1499169;95;21156;-49
2021/06/06 02:36:13;;;;;;;5.03;3.02;;;;;;;21.56;54.47;101524.22;1501445;95;21103;-48
2021/06/06 02:38:49;;;;;;;6.90;3.17;;;;;;;21.49;55.07;101526.83;1504613;94;21108;-48
2021/06/06 02:41:30;;;;;;;4.05;2.90;;;;;;;21.39;55.44;101529.59;1507812;95;21100;-48
2021/06/06 02:44:09;;;;;;;5.35;3.22;;;;;;;21.44;55.54;101536.80;1510505;93;21091;-48
2021/06/06 02:46:38;;;;;;;5.55;3.40;;;;;;;21.47;55.68;101530.03;1494129;96;21572;-49
2021/06/06 02:49:11;;;;;;;5.10;3.30;;;;;;;21.50;55.77;101529.39;1494098;96;21576;-48
2021/06/06 02:51:48;;;;;;;5.12;3.00;;;;;;;21.51;55.74;101524.49;1511586;93;21087;-48
2021/06/06 02:54:23;;;;;;;5.22;3.22;;;;;;;21.51;55.78;101523.17;1475161;97;21200;-49
2021/06/06 02:56:55;;;;;;;3.85;3.47;;;;;;;21.67;55.78;101524.48;1474814;97;21092;-50
2021/06/06 02:59:28;;;;;;;4.17;3.50;;;;;;;21.68;55.68;101521.75;1475112;96;21203;-49
2021/06/06 03:02:03;;;;;;;6.08;3.90;;;;;;;21.70;55.74;101521.19;1430946;100;21116;-48
2021/06/06 03:04:32;;;;;;;3.25;2.90;;;;;;;21.71;55.63;101522.05;1431988;100;21093;-48
2021/06/06 03:07:07;;;;;;;4.05;3.10;;;;;;;21.71;55.82;101515.43;1383288;103;21112;-49
2021/06/06 03:09:34;;;;;;;3.87;2.95;;;;;;;21.71;55.94;101522.92;1424784;100;21269;-49
2021/06/06 03:12:08;;;;;;;3.60;2.72;;;;;;;21.72;55.64;101515.34;1342196;106;21140;-48
2021/06/06 03:14:41;;;;;;;3.90;2.95;;;;;;;21.72;55.58;101510.53;1363545;103;21156;-48
2021/06/06 03:17:17;;;;;;;4.92;2.80;;;;;;;21.73;55.63;101510.91;1360211;105;21300;-48
2021/06/06 03:19:46;;;;;;;4.03;3.02;;;;;;;21.73;55.77;101513.09;1277735;112;21208;-49
2021/06/06 03:22:19;;;;;;;5.72;3.70;;;;;;;21.72;55.83;101510.04;1291082;111;21643;-49
2021/06/06 03:24:53;;;;;;;4.28;2.80;;;;;;;21.75;55.92;101513.00;1266678;113;21297;-49
2021/06/06 03:27:22;;;;;;;3.05;2.75;;;;;;;21.76;55.99;101513.39;1261978;113;21710;-49
2021/06/06 03:30:10;;;;;;;4.22;3.00;;;;;;;21.78;55.98;101510.19;1263485;113;21300;-49
2021/06/06 03:32:39;;;;;;;5.60;3.05;;;;;;;21.79;55.86;101509.23;1265432;113;21235;-49
2021/06/06 03:35:09;;;;;;;4.75;2.72;;;;;;;21.80;55.86;101499.03;1258440;113;21626;-49
2021/06/06 03:37:37;;;;;;;3.22;2.67;;;;;;;21.81;55.97;101500.73;1267293;113;21732;-49
2021/06/06 03:40:09;;;;;;;6.12;3.00;;;;;;;21.83;55.97;101496.23;1272118;113;21191;-49
2021/06/06 03:42:40;;;;;;;4.00;2.33;;;;;;;21.84;56.02;101497.45;1228734;114;21146;-49
2021/06/06 03:45:09;;;;;;;3.72;2.80;;;;;;;21.85;55.66;101497.00;1242172;114;21131;-49
2021/06/06 03:47:38;;;;;;;5.70;3.12;;;;;;;21.74;55.94;101496.73;1244163;114;21313;-49
2021/06/06 03:50:09;;;;;;;3.42;3.00;;;;;;;21.69;56.08;101494.80;1252267;113;21280;-49
2021/06/06 03:52:39;;;;;;;3.02;2.70;;;;;;;21.68;56.19;101492.61;1287357;110;21187;-50
2021/06/06 03:55:09;;;;;;;6.53;2.92;;;;;;;21.69;56.39;101494.80;1288996;110;21168;-48
2021/06/06 03:57:36;;;;;;;3.77;2.95;;;;;;;21.70;56.35;101488.58;1299517;108;21651;-49
2021/06/06 04:00:10;;;;;;;5.15;3.05;;;;;;;21.70;56.42;101483.28;1329090;107;21223;-49
2021/06/06 04:02:39;;;;;;;3.33;2.60;;;;;;;21.72;56.48;101482.72;1316526;107;21210;-49
2021/06/06 04:05:10;;;;;;;6.17;2.90;;;;;;;21.73;56.58;101480.44;1318151;107;21295;-49
2021/06/06 04:07:37;;;;;;;3.58;2.80;;;;;;;21.84;56.32;101478.08;1319629;107;21142;-49
2021/06/06 04:10:06;;;;;;;4.08;2.72;;;;;;;21.86;56.40;101470.90;1319628;107;21666;-49
2021/06/06 04:12:34;;;;;;;4.65;2.83;;;;;;;21.85;56.49;101466.52;1305508;109;21158;-49
2021/06/06 04:15:05;;;;;;;4.05;3.30;;;;;;;21.88;56.55;101462.85;1319589;107;21207;-48
2021/06/06 04:17:32;;;;;;;2.77;2.55;;;;;;;21.89;56.69;101462.75;1455396;96;21536;-49
2021/06/06 04:20:01;;;;;;;3.40;2.83;;;;;;;21.93;56.79;101461.64;1472633;96;21079;-49
2021/06/06 04:22:29;;;;;;;3.58;2.60;;;;;;;21.94;56.97;101458.06;1537452;91;21060;-49
2021/06/06 04:24:58;;;;;;;5.60;2.65;;;;;;;21.96;57.09;101454.85;1562000;92;21168;-49
2021/06/06 04:27:25;;;;;;;5.80;2.80;;;;;;;21.95;57.10;101457.10;1564883;92;21138;-48
2021/06/06 04:29:54;;;;;;;3.42;2.77;;;;;;;21.97;57.08;101457.87;1565177;92;21538;-49
2021/06/06 04:32:21;;;;;;;3.75;2.50;;;;;;;21.98;56.91;101456.08;1564867;92;21158;-48
2021/06/06 04:34:48;;;;;;;2.92;2.55;;;;;;;21.97;56.85;101456.55;1564977;92;21164;-48
2021/06/06 04:37:17;;;;;;;5.45;2.80;;;;;;;21.98;56.91;101458.27;1564882;92;21112;-48
2021/06/06 04:39:45;;;;;;;5.20;3.00;;;;;;;21.97;57.12;101455.22;1603072;87;21065;-48
2021/06/06 04:42:17;;;;;;;4.70;2.92;;;;;;;22.00;57.15;101460.36;1624859;87;21540;-49
2021/06/06 04:44:42;;;;;;;4.78;3.05;;;;;;;22.01;57.21;101460.72;1604837;89;21035;-48
2021/06/06 04:47:09;;;;;;;4.15;3.00;;;;;;;22.04;57.40;101451.28;1645854;86;21091;-49
2021/06/06 04:49:39;;;;;;;4.35;2.75;;;;;;;22.08;57.44;101446.65;1709478;83;21530;-49
2021/06/06 04:52:07;;;;;;;3.05;2.72;;;;;;;22.06;57.73;101449.39;1716016;83;21144;-49
2021/06/06 04:54:36;;;;;;;2.93;2.43;;;;;;;22.09;57.90;101446.55;1715837;83;20986;-48
2021/06/06 04:57:05;;;;;;;7.05;3.10;;;;;;;22.13;58.00;101443.27;1711535;83;20994;-48
2021/06/06 04:59:36;;;;;;;5.83;2.85;;;;;;;22.18;58.07;101444.70;1748560;80;20994;-49
2021/06/06 05:02:09;;;;;;;5.55;2.80;;;;;;;22.25;58.21;101444.73;1776060;80;21495;-49
2021/06/06 05:04:41;;;;;;;5.37;3.02;;;;;;;22.30;58.32;101446.63;1760674;80;21006;-49
2021/06/06 05:07:07;;;;;;;7.00;3.12;;;;;;;22.35;58.50;101460.47;1784262;80;21006;-49
2021/06/06 05:09:36;;;;;;;5.97;3.15;;;;;;;22.42;58.69;101472.91;1767705;80;20999;-49
2021/06/06 05:12:07;;;;;;;3.75;3.35;;;;;;;22.63;58.10;101471.16;1779421;80;21030;-49
2021/06/06 05:14:35;;;;;;;5.78;3.47;;;;;;;22.74;57.53;101478.94;1784364;80;20990;-48
2021/06/06 05:17:04;;;;;;;4.00;2.90;;;;;;;22.79;56.90;101471.56;1777248;80;21009;-49
2021/06/06 05:19:34;;;;;;;4.28;3.02;;;;;;;22.79;56.83;101467.13;1772758;80;21042;-48
2021/06/06 05:22:04;;;;;;;7.37;3.33;;;;;;;22.90;56.95;101470.42;1776735;80;21015;-49
2021/06/06 05:24:33;;;;;;;3.67;3.00;;;;;;;23.07;56.54;101466.26;1770412;80;21046;-49
2021/06/06 05:27:00;;;;;;;5.70;2.80;;;;;;;23.24;56.26;101463.41;1770143;81;21058;-49
2021/06/06 05:29:27;;;;;;;4.33;2.72;;;;;;;23.38;55.41;101462.09;1770020;81;21054;-49
2021/06/06 05:31:53;;;;;;;3.72;3.10;;;;;;;23.48;54.88;101466.33;1770589;81;21007;-48
2021/06/06 05:34:20;;;;;;;4.10;3.27;;;;;;;23.53;54.67;101466.44;1767224;81;21030;-48
2021/06/06 05:36:47;;;;;;;3.58;2.60;;;;;;;23.59;54.56;101464.70;1770252;81;20982;-49
2021/06/06 05:39:16;;;;;;;4.83;3.30;;;;;;;23.61;54.29;101462.80;1768313;81;21023;-49
2021/06/06 05:41:43;;;;;;;3.52;2.62;;;;;;;23.62;54.07;101465.82;1767210;80;20991;-52
2021/06/06 05:44:10;;;;;;;3.55;2.77;;;;;;;23.62;53.89;101471.13;1768856;81;21058;-49
2021/06/06 05:46:37;;;;;;;6.60;3.92;;;;;;;23.62;54.19;101458.34;1769058;81;21035;-49
2021/06/06 05:49:04;;;;;;;3.58;2.80;;;;;;;23.63;53.89;101464.02;1766914;81;21525;-49
2021/06/06 05:51:31;;;;;;;4.22;2.60;;;;;;;23.64;53.83;101459.93;1767684;81;20983;-48
2021/06/06 05:54:04;;;;;;;4.78;2.90;;;;;;;23.66;53.93;101464.67;1712823;83;21058;-49
2021/06/06 05:56:31;;;;;;;2.70;2.08;;;;;;;23.70;53.85;101454.22;1710007;83;21581;-48
2021/06/06 05:58:57;;;;;;;3.55;2.85;;;;;;;23.73;53.42;101454.03;1715785;84;21030;-48
2021/06/06 06:01:26;;;;;;;3.70;2.83;;;;;;;23.74;52.98;101458.38;1716029;84;21018;-48
2021/06/06 06:03:54;;;;;;;6.03;3.37;;;;;;;23.73;53.04;101465.98;1716230;83;21034;-49
2021/06/06 06:06:20;;;;;;;4.35;2.92;;;;;;;23.72;52.91;101467.42;1715865;84;21071;-49
2021/06/06 06:08:48;;;;;;;3.85;2.70;;;;;;;23.67;52.84;101469.52;1716484;83;20999;-49
2021/06/06 06:11:18;;;;;;;3.55;2.70;;;;;;;23.61;53.06;101466.79;1716140;84;21538;-48
2021/06/06 06:13:49;;;;;;;;;;;;;;;23.57;52.92;101463.95;1718719;83;21023;-48
2021/06/06 06:16:31;;;;;;;4.70;3.12;;;;;;;23.60;52.93;101463.73;1715888;84;20155;-49
2021/06/06 06:19:01;;;;;;;5.45;2.62;;;;;;;23.61;53.06;101466.79;1715908;84;21522;-49
2021/06/06 06:21:29;;;;;;;6.70;3.02;;;;;;;23.62;53.13;101461.84;1715890;84;21047;-49
2021/06/06 06:23:56;;;;;;;4.25;3.20;;;;;;;23.63;53.00;101464.88;1725552;82;21062;-49
2021/06/06 06:26:23;;;;;;;4.10;2.80;;;;;;;23.62;52.98;101461.84;1732773;82;21119;-49
2021/06/06 06:28:55;;;;;;;3.60;3.10;;;;;;;23.60;52.98;101455.77;1621028;88;21078;-48
2021/06/06 06:31:33;;;;;;;3.72;3.10;;;;;;;23.56;53.21;101456.92;1622911;88;21065;-48
2021/06/06 06:34:02;;;;;;;4.50;3.15;;;;;;;23.54;53.54;101461.48;1584957;90;21102;-49
2021/06/06 06:36:29;;;;;;;7.65;2.67;;;;;;;23.47;53.85;101461.52;1624813;88;21033;-49
2021/06/06 06:38:57;;;;;;;5.50;3.33;;;;;;;23.38;53.90;101456.78;1611823;88;21050;-49
2021/06/06 06:41:28;;;;;;;3.35;2.90;;;;;;;23.31;54.18;101451.43;1621351;88;21078;-48
2021/06/06 06:43:54;;;;;;;5.33;3.33;;;;;;;23.28;54.27;101451.17;1633380;87;21055;-49
2021/06/06 06:46:22;;;;;;;4.37;3.30;;;;;;;23.27;54.25;101452.58;1629602;87;21122;-49
2021/06/06 06:48:52;;;;;;;3.47;3.17;;;;;;;23.23;54.35;101455.05;1633723;87;21035;-49
2021/06/06 06:51:19;;;;;;;4.67;2.75;;;;;;;23.18;54.37;101453.17;1611077;87;21120;-48
2021/06/06 06:53:48;;;;;;;3.72;2.83;;;;;;;23.19;54.39;101452.20;1606581;88;21064;-48
2021/06/06 06:56:15;;;;;;;3.12;2.80;;;;;;;23.19;54.50;101452.20;1599251;88;21568;-49
2021/06/06 06:58:43;;;;;;;4.37;3.30;;;;;;;23.20;54.56;101451.28;1615828;88;21062;-50
2021/06/06 07:01:11;;;;;;;2.83;2.62;;;;;;;23.21;54.44;101449.84;1591152;88;21076;-48
2021/06/06 07:03:38;;;;;;;4.55;3.20;;;;;;;23.23;54.38;101455.91;1606459;88;21020;-48
2021/06/06 07:06:06;;;;;;;4.53;2.90;;;;;;;23.23;54.13;101452.39;1608374;88;21087;-48
2021/06/06 07:08:36;;;;;;;3.35;2.70;;;;;;;23.22;53.96;101449.38;1609937;88;21069;-49
2021/06/06 07:11:06;;;;;;;2.60;2.40;;;;;;;23.21;53.92;101450.31;1617323;88;21065;-49
2021/06/06 07:13:33;;;;;;;3.08;2.55;;;;;;;23.21;53.91;101448.98;1612128;88;21094;-49
2021/06/06 07:16:03;;;;;;;2.62;2.42;;;;;;;23.15;53.78;101450.23;1610287;88;21058;-49
2021/06/06 07:18:31;;;;;;;4.92;2.60;;;;;;;23.11;53.41;101447.39;1610128;88;21212;-49
2021/06/06 07:21:02;;;;;;;5.03;2.33;;;;;;;23.13;53.22;101452.59;1609115;88;21584;-51
2021/06/06 07:23:30;;;;;;;3.73;2.77;;;;;;;23.16;53.22;101449.27;1600848;88;21083;-49
2021/06/06 07:25:58;;;;;;;2.83;2.40;;;;;;;23.17;53.08;101451.45;1658775;84;21096;-48
2021/06/06 07:28:25;;;;;;;3.77;2.70;;;;;;;23.17;53.15;101452.78;1682446;84;21051;-48
2021/06/06 07:30:56;;;;;;;3.77;2.15;;;;;;;23.19;53.26;101453.54;1682366;84;21049;-49
2021/06/06 07:33:28;;;;;;;3.47;2.60;;;;;;;23.23;53.09;101456.38;1688077;84;21017;-49
2021/06/06 07:35:56;;;;;;;3.25;2.75;;;;;;;23.26;53.02;101456.20;1615622;88;21021;-49
2021/06/06 07:38:24;;;;;;;7.25;5.40;;;;;;;23.29;52.81;101455.98;1615450;89;21057;-49
2021/06/06 07:40:52;;;;;;;7.92;5.83;;;;;;;23.34;52.77;101455.27;1616213;88;21105;-49
2021/06/06 07:43:19;;;;;;;7.37;5.00;;;;;;;23.37;52.21;101459.04;1613019;88;21521;-49
2021/06/06 07:45:46;;;;;;;8.33;6.22;;;;;;;23.39;52.22;101460.66;1615302;88;21041;-49
2021/06/06 07:48:13;;;;;;;20.55;15.15;;;;;;;23.43;52.67;101462.66;1642953;86;21101;-49
2021/06/06 07:50:44;;;;;;;29.87;21.85;;;;;;;23.50;52.45;101459.97;1644533;87;21034;-49
2021/06/06 07:53:12;;;;;;;11.25;9.95;;;;;;;23.55;52.30;101459.22;1644452;87;21076;-50
2021/06/06 07:55:39;;;;;;;22.85;20.40;;;;;;;23.60;52.25;101459.75;1650638;87;21019;-49
2021/06/06 07:58:05;;;;;;;31.65;26.87;;;;;;;23.64;52.08;101459.10;1648348;87;21607;-50
2021/06/06 08:00:39;;;;;;;16.75;13.85;;;;;;;23.67;52.20;101458.89;1646088;87;21017;-49
2021/06/06 08:03:06;;;;;;;12.95;11.65;;;;;;;23.62;52.34;101467.15;1644742;87;21070;-49
2021/06/06 08:05:34;;;;;;;11.70;9.95;;;;;;;23.62;52.21;101463.66;1608659;89;21062;-48
2021/06/06 08:08:01;;;;;;;15.25;13.70;;;;;;;23.62;52.11;101467.15;1648715;86;21063;-49
2021/06/06 08:10:32;;;;;;;18.90;16.73;;;;;;;23.62;52.09;101467.15;1651089;85;21058;-49
2021/06/06 08:13:00;;;;;;;20.08;17.95;;;;;;;23.64;52.10;101475.88;1636928;87;21064;-49
2021/06/06 08:15:28;;;;;;;14.50;13.10;;;;;;;23.65;52.31;101468.77;1644399;87;21006;-50
2021/06/06 08:17:56;;;;;;;14.33;11.68;;;;;;;23.67;52.26;101470.38;1646250;87;21594;-49
2021/06/06 08:20:28;;;;;;;43.25;26.42;;;;;;;23.68;52.54;101473.39;1644821;87;21683;-49
2021/06/06 08:22:56;;;;;;;85.65;52.98;;;;;;;23.69;51.86;101471.13;1645426;87;21002;-48
2021/06/06 08:25:23;;;;;;;34.58;27.52;;;;;;;23.82;51.98;101472.02;1681978;85;21109;-48
2021/06/06 08:27:51;;;;;;;42.78;37.70;;;;;;;23.88;52.44;101471.64;1686071;85;21052;-48
2021/06/06 08:30:39;;;;;;;19.50;15.55;;;;;;;23.92;52.72;101473.14;1687887;85;21042;-48
2021/06/06 08:33:08;;;;;;;11.48;10.28;;;;;;;24.00;53.10;101469.97;1737186;80;21019;-48
2021/06/06 08:35:34;;;;;;;6.55;5.95;;;;;;;24.05;52.89;101472.72;1776750;80;21487;-48
2021/06/06 08:38:02;;;;;;;8.13;6.45;;;;;;;24.09;52.99;101475.55;1767140;80;21068;-48
2021/06/06 08:40:40;;;;;;;6.37;5.78;;;;;;;24.10;52.71;101473.28;1773095;80;21002;-51
2021/06/06 08:43:08;;;;;;;3.58;3.27;;;;;;;24.05;53.22;101476.71;1777194;80;21003;-49
2021/06/06 08:45:50;;;;;;;4.75;3.80;;;;;;;24.11;52.70;101480.29;1777958;80;21019;-48
2021/06/06 08:48:19;;;;;;;3.25;2.98;;;;;;;24.11;53.00;101476.30;1770899;80;20994;-49
2021/06/06 08:50:50;;;;;;;4.12;3.15;;;;;;;24.12;53.32;101479.35;1763534;80;21017;-50
2021/06/06 08:53:31;;;;;;;4.40;3.30;;;;;;;24.20;52.81;101481.48;1777112;80;21200;-48
2021/06/06 08:56:20;;;;;;;6.15;3.72;;;;;;;24.19;52.02;101473.98;1699059;83;21015;-48
2021/06/06 08:59:07;;;;;;;3.50;3.20;;;;;;;24.23;52.06;101474.66;1707529;83;21054;-48
2021/06/06 09:01:49;;;;;;;4.42;3.12;;;;;;;24.31;51.51;101475.45;1701082;83;21518;-49
2021/06/06 09:04:26;;;;;;;4.72;2.98;;;;;;;24.39;51.64;101477.12;1704169;83;21458;-51
2021/06/06 09:07:13;;;;;;;5.55;4.35;;;;;;;24.48;51.09;101471.19;1637276;86;21098;-49
2021/06/06 09:09:46;;;;;;;4.78;3.37;;;;;;;24.61;51.13;101469.37;1635473;86;21494;-49
2021/06/06 09:12:18;;;;;;;6.72;3.67;;;;;;;24.69;51.60;101466.56;1618325;87;21044;-48
2021/06/06 09:14:49;;;;;;;3.60;3.30;;;;;;;24.74;51.65;101472.93;1591519;89;21581;-50
2021/06/06 09:17:19;;;;;;;8.75;3.40;;;;;;;24.79;51.65;101468.16;1591395;89;21549;-49
2021/06/06 09:19:56;;;;;;;5.83;3.58;;;;;;;24.84;51.98;101468.67;1599587;89;21034;-49
2021/06/06 09:22:41;;;;;;;4.28;3.30;;;;;;;24.88;52.05;101467.49;1571182;89;21027;-49
2021/06/06 09:25:28;;;;;;;3.45;2.60;;;;;;;24.92;51.88;101468.51;1594115;88;21208;-49
2021/06/06 09:28:15;;;;;;;3.22;2.92;;;;;;;24.99;51.29;101473.79;1594604;89;21037;-49
2021/06/06 09:30:42;;;;;;;2.80;2.60;;;;;;;25.03;50.59;101473.95;1577334;89;21082;-49
2021/06/06 09:33:31;;;;;;;2.87;2.40;;;;;;;25.04;50.22;101466.78;1589026;89;21644;-49
2021/06/06 09:36:17;;;;;;;4.65;2.75;;;;;;;25.07;49.72;101470.58;1579789;90;21053;-49
2021/06/06 09:38:48;;;;;;;3.30;2.58;;;;;;;25.08;49.94;101466.11;1543685;91;21119;-49
2021/06/06 09:41:26;;;;;;;5.12;2.60;;;;;;;25.12;49.96;101468.45;1558059;91;21060;-49
2021/06/06 09:44:07;;;;;;;3.67;2.60;;;;;;;25.13;49.53;101463.48;1555375;91;21204;-48
2021/06/06 09:47:02;;;;;;;2.80;2.50;;;;;;;25.10;49.22;101465.52;1558977;91;21028;-49
2021/06/06 09:49:40;;;;;;;3.05;2.75;;;;;;;25.06;49.57;101464.86;1560652;91;21139;-49
2021/06/06 09:52:40;;;;;;;3.52;2.90;;;;;;;25.02;49.66;101459.38;1544201;91;21209;-49
2021/06/06 09:55:06;;;;;;;5.70;3.80;;;;;;;25.00;49.77;101459.97;1552054;91;21552;-49
2021/06/06 09:57:38;;;;;;;26.20;16.97;;;;;;;25.00;49.33;101469.29;1547320;91;21646;-48
2021/06/06 10:00:26;;;;;;;11.65;9.10;;;;;;;24.96;49.61;101463.34;1546582;91;21008;-48
2021/06/06 10:03:05;;;;;;;5.37;4.40;;;;;;;24.94;49.55;101461.73;1549197;91;21126;-49
2021/06/06 10:05:36;;;;;;;4.12;3.72;;;;;;;24.91;49.33;101461.97;1514020;94;21626;-50
2021/06/06 10:08:24;;;;;;;3.67;2.98;;;;;;;24.89;49.32;101462.56;1460953;96;21101;-52
2021/06/06 10:10:56;;;;;;;4.95;3.50;;;;;;;24.88;49.28;101454.19;1467865;95;21083;-49
2021/06/06 10:13:27;;;;;;;2.98;2.77;;;;;;;24.79;49.60;101453.52;1498310;94;21083;-49
2021/06/06 10:16:04;;;;;;;;;;;;;;;24.78;49.35;101453.13;1516568;92;21112;-48
2021/06/06 10:18:36;;;;;;;3.45;3.15;;;;;;;24.79;49.19;101457.51;1498101;95;20115;-50
2021/06/06 10:21:16;;;;;;;;;;;;;;;24.84;49.13;101463.34;1503492;94;21093;-50
2021/06/06 10:24:07;;;;;;;2.72;2.52;;;;;;;24.86;49.11;101470.27;1442883;99;20144;-51
2021/06/06 10:26:49;;;;;;;6.62;2.85;;;;;;;24.87;48.85;101463.14;1466459;97;21109;-49
2021/06/06 10:29:31;;;;;;;2.70;2.50;;;;;;;24.89;48.97;101462.05;1466059;97;21078;-49
2021/06/06 10:32:16;;;;;;;3.60;3.05;;;;;;;24.94;48.98;101460.41;1464661;97;21090;-50
2021/06/06 10:35:15;;;;;;;3.83;2.70;;;;;;;25.03;48.92;101463.77;1466278;97;21081;-50
2021/06/06 10:37:45;;;;;;;3.62;2.37;;;;;;;25.12;48.53;101463.59;1395147;101;21109;-50
2021/06/06 10:40:23;;;;;;;2.30;2.10;;;;;;;25.19;48.74;101453.72;1383135;102;21258;-49
2021/06/06 10:42:54;;;;;;;3.67;1.98;;;;;;;25.13;48.14;101448.84;1361964;104;21194;-49
2021/06/06 10:45:34;;;;;;;1.70;1.60;;;;;;;25.14;46.27;101446.55;1375318;103;21138;-49
2021/06/06 10:48:22;;;;;;;2.40;2.00;;;;;;;25.09;45.16;101439.36;1363467;104;21192;-49
2021/06/06 10:50:56;;;;;;;1.85;1.70;;;;;;;25.05;44.06;101439.21;1349635;106;21182;-49
2021/06/06 10:53:27;;;;;;;3.67;2.45;;;;;;;25.01;43.86;101435.06;1350199;106;21658;-48
2021/06/06 10:56:14;;;;;;;1.47;1.27;;;;;;;24.97;44.11;101437.10;1349979;106;21163;-49
2021/06/06 10:59:03;;;;;;;2.45;1.62;;;;;;;24.94;44.58;101437.78;1349960;106;21704;-49
2021/06/06 11:01:49;;;;;;;1.82;1.60;;;;;;;24.89;43.58;101430.11;1344906;106;21688;-50
2021/06/06 11:04:28;;;;;;;1.67;1.57;;;;;;;24.89;42.19;101429.28;1367621;104;21160;-49
2021/06/06 11:07:10;;;;;;;3.30;1.98;;;;;;;24.90;42.08;101426.97;1354336;105;21210;-50
2021/06/06 11:09:39;;;;;;;1.65;1.55;;;;;;;24.86;43.04;101421.49;1365389;102;21277;-50
2021/06/06 11:12:12;;;;;;;4.67;1.98;;;;;;;24.84;43.53;101426.94;1338165;106;21644;-50
2021/06/06 11:14:47;;;;;;;;;;;;;;;24.84;43.14;101428.73;1352800;103;21159;-50
2021/06/06 11:17:37;;;;;;;2.47;2.27;;;;;;;24.83;45.29;101431.05;1410624;101;20449;-50
2021/06/06 11:20:30;;;;;;;4.15;2.45;;;;;;;24.81;46.48;101427.14;1402792;101;21115;-50
2021/06/06 11:22:57;;;;;;;;;;;;;;;24.79;46.93;101433.55;1392020;102;21716;-50
2021/06/06 11:25:42;;;;;;;3.37;2.52;;;;;;;24.54;48.27;101429.52;1394110;102;20193;-50
2021/06/06 11:28:38;;;;;;;5.53;2.60;;;;;;;24.69;48.74;101427.14;1363925;105;21304;-50
2021/06/06 11:31:28;;;;;;;4.15;2.30;;;;;;;24.70;49.41;101429.69;1329474;107;21206;-49
2021/06/06 11:34:24;;;;;;;5.83;2.70;;;;;;;24.67;49.93;101428.55;1376075;101;21116;-50
2021/06/06 11:37:02;;;;;;;2.62;2.40;;;;;;;24.69;50.20;101433.29;1385998;102;21111;-50
2021/06/06 11:39:40;;;;;;;3.55;2.30;;;;;;;24.66;50.32;101435.32;1332210;106;21203;-50
2021/06/06 11:42:39;;;;;;;4.22;2.08;;;;;;;24.64;50.27;101434.58;1339609;106;21173;-49
2021/06/06 11:45:29;;;;;;;2.90;2.08;;;;;;;24.69;49.89;101433.80;1340331;106;21107;-50
2021/06/06 11:48:00;;;;;;;2.55;1.95;;;;;;;24.75;49.40;101427.56;1414783;101;21155;-50
2021/06/06 11:50:47;;;;;;;5.40;2.08;;;;;;;24.78;49.11;101418.05;1421513;100;21142;-49
2021/06/06 11:53:30;;;;;;;3.47;2.05;;;;;;;24.84;49.13;101418.09;1420340;100;21098;-50